Airport Name : Calgary Springbank

Other Name : Calgary

ICAO : CYBW

IATA : YBW

FAA :

Latitude : 51.103056

Longitude : -114.374444

Country : Canada

Local Date and Time : 4/25/2018 9:53:00 PM

 

TAF (Terminal Aerodrome Forecast)

TAF CYBW 252338Z 2600/2604 02005KT P6SM SKC RMK FCST BASED ON AUTO OBS. NXT FCST WILL BE ISSUED AT 261145Z

 

METAR (METeorological Aerodrome Report)

CYBW 260300Z AUTO 17008KT 9SM CLR 07/00 A3011 RMK SLP227

CYBW 260200Z AUTO 18008KT 9SM CLR 12/M01 A3011 RMK SLP221 DENSITY ALT 4200FT

CYBW 260100Z AUTO 16009KT 9SM CLR 14/M01 A3012 RMK SLP222 DENSITY ALT 4400FT

CYBW 260000Z AUTO 09006KT 070V160 9SM CLR 14/M02 A3013 RMK SLP221 DENSITY ALT 4400FT